createdAt,value
2022-10-18T00:00:16.429Z,23.40
2022-10-18T00:02:45.521Z,24.00
2022-10-18T00:05:14.668Z,24.10
2022-10-18T00:07:43.664Z,22.13
2022-10-18T00:10:14.461Z,22.93
2022-10-18T00:12:43.584Z,24.03
2022-10-18T00:15:13.383Z,22.47
2022-10-18T00:17:42.551Z,24.27
2022-10-18T00:20:12.812Z,24.23
2022-10-18T00:22:42.731Z,21.90
2022-10-18T00:25:13.329Z,24.00
2022-10-18T00:27:42.327Z,22.40
2022-10-18T00:30:12.062Z,24.17
2022-10-18T00:32:42.012Z,25.90
2022-10-18T00:35:11.379Z,23.40
2022-10-18T00:37:40.462Z,23.40
2022-10-18T00:40:11.296Z,22.77
2022-10-18T00:42:41.909Z,25.10
2022-10-18T00:45:22.495Z,24.37
2022-10-18T00:47:55.322Z,25.03
2022-10-18T00:50:26.301Z,23.03
2022-10-18T00:52:59.013Z,22.40
2022-10-18T00:55:28.382Z,21.07
2022-10-18T00:57:59.502Z,21.23
2022-10-18T01:00:28.850Z,20.57
2022-10-18T01:02:59.688Z,23.17
2022-10-18T01:05:29.076Z,23.00
2022-10-18T01:08:26.431Z,20.83
2022-10-18T01:11:04.944Z,19.73
2022-10-18T01:13:44.986Z,18.73
2022-10-18T01:16:20.701Z,22.20
2022-10-18T01:18:54.567Z,19.17
2022-10-18T01:21:32.394Z,19.33
2022-10-18T01:24:55.181Z,19.20
2022-10-18T01:27:46.144Z,19.00
2022-10-18T01:30:47.732Z,20.33
2022-10-18T01:33:27.315Z,19.17
2022-10-18T01:36:01.602Z,21.07
2022-10-18T01:38:33.653Z,21.03
2022-10-18T01:41:04.832Z,18.33
2022-10-18T01:43:35.637Z,18.40
2022-10-18T01:46:06.864Z,16.23
2022-10-18T01:48:38.256Z,18.30
2022-10-18T01:51:07.454Z,16.07
2022-10-18T01:53:37.175Z,16.30
2022-10-18T01:56:21.606Z,16.23
2022-10-18T01:59:10.735Z,13.43
2022-10-18T02:01:49.654Z,11.67
2022-10-18T02:04:25.473Z,13.20
2022-10-18T02:07:00.200Z,11.80
2022-10-18T02:09:39.518Z,12.67
2022-10-18T02:12:12.064Z,13.03
2022-10-18T02:14:42.825Z,11.67
2022-10-18T02:17:14.400Z,12.10
2022-10-18T02:19:47.161Z,12.03
2022-10-18T02:22:18.024Z,10.13
2022-10-18T02:24:51.002Z,10.13
2022-10-18T02:27:20.393Z,9.67
2022-10-18T02:29:49.983Z,9.47
2022-10-18T02:32:27.434Z,14.60
2022-10-18T02:35:00.633Z,9.40
2022-10-18T02:37:34.156Z,9.20
2022-10-18T02:40:04.691Z,10.20
2022-10-18T02:42:37.235Z,11.63
2022-10-18T02:45:07.861Z,9.90
2022-10-18T02:47:38.302Z,12.17
2022-10-18T02:50:07.914Z,9.57
2022-10-18T02:52:36.958Z,9.10
2022-10-18T02:55:07.303Z,12.87
2022-10-18T02:57:36.578Z,8.43
2022-10-18T03:00:07.375Z,9.70
2022-10-18T03:02:37.858Z,9.20
2022-10-18T03:05:07.420Z,8.50
2022-10-18T03:07:36.502Z,10.60
2022-10-18T03:10:05.898Z,8.70
2022-10-18T03:12:34.989Z,9.87
2022-10-18T03:15:04.041Z,10.50
2022-10-18T03:17:33.418Z,9.00
2022-10-18T03:20:04.190Z,10.40
2022-10-18T03:22:33.341Z,10.37
2022-10-18T03:25:02.308Z,8.90
2022-10-18T03:27:31.890Z,10.60
2022-10-18T03:30:01.264Z,9.10
2022-10-18T03:32:30.514Z,11.97
2022-10-18T03:34:59.690Z,8.33
2022-10-18T03:37:30.259Z,10.50
2022-10-18T03:39:59.287Z,9.30
2022-10-18T03:42:28.489Z,9.93
2022-10-18T03:44:57.702Z,9.60
2022-10-18T03:47:26.974Z,8.53
2022-10-18T03:49:57.252Z,14.03
2022-10-18T03:52:26.571Z,7.67
2022-10-18T03:54:57.030Z,8.13
2022-10-18T03:57:26.200Z,9.63
2022-10-18T03:59:55.181Z,12.60
2022-10-18T04:02:24.183Z,8.53
2022-10-18T04:04:53.547Z,8.63
2022-10-18T04:07:22.558Z,9.77
2022-10-18T04:09:51.577Z,8.00
2022-10-18T04:12:22.100Z,7.43
2022-10-18T04:14:51.144Z,7.20
2022-10-18T04:17:20.243Z,9.20
2022-10-18T04:19:49.669Z,7.80
2022-10-18T04:22:18.745Z,7.90
2022-10-18T04:24:47.865Z,8.90
2022-10-18T04:27:16.981Z,8.57
2022-10-18T04:29:47.593Z,8.67
2022-10-18T04:32:16.590Z,8.93
2022-10-18T04:34:45.772Z,9.67
2022-10-18T04:37:14.781Z,7.53
2022-10-18T04:39:49.915Z,10.10
2022-10-18T04:42:22.279Z,9.43
2022-10-18T04:44:52.939Z,7.70
2022-10-18T04:47:22.190Z,8.87
2022-10-18T04:49:51.230Z,8.47
2022-10-18T04:52:20.476Z,7.90
2022-10-18T04:54:49.682Z,11.73
2022-10-18T04:57:18.871Z,7.97
2022-10-18T04:59:48.033Z,10.40
2022-10-18T05:02:18.751Z,10.00
2022-10-18T05:04:47.912Z,8.00
2022-10-18T05:07:17.472Z,8.77
2022-10-18T05:09:46.751Z,10.27
2022-10-18T05:12:16.177Z,8.63
2022-10-18T05:14:45.562Z,8.37
2022-10-18T05:17:14.702Z,8.10
2022-10-18T05:19:45.311Z,10.63
2022-10-18T05:22:14.491Z,9.67
2022-10-18T05:24:43.722Z,8.93
2022-10-18T05:27:12.985Z,9.17
2022-10-18T05:29:42.187Z,8.43
2022-10-18T05:32:11.442Z,10.63
2022-10-18T05:34:40.832Z,10.43
2022-10-18T05:37:11.583Z,10.37
2022-10-18T05:39:40.782Z,12.13
2022-10-18T05:42:10.111Z,9.47
2022-10-18T05:44:39.342Z,8.00
2022-10-18T05:47:08.654Z,9.13
2022-10-18T05:49:38.022Z,11.30
2022-10-18T05:52:08.352Z,10.70
2022-10-18T05:54:39.237Z,13.60
2022-10-18T05:57:08.694Z,8.40
2022-10-18T05:59:37.938Z,9.47
2022-10-18T06:02:07.249Z,10.03
2022-10-18T06:04:37.331Z,8.83
2022-10-18T06:07:11.573Z,14.38
2022-10-18T06:09:42.651Z,14.00
2022-10-18T06:12:11.951Z,10.50
2022-10-18T06:14:41.149Z,11.65
2022-10-18T06:17:10.461Z,10.13
2022-10-18T06:19:39.732Z,10.10
2022-10-18T06:22:09.130Z,11.38
2022-10-18T06:24:38.628Z,15.18
2022-10-18T06:27:09.803Z,10.18
2022-10-18T06:29:39.709Z,14.27
2022-10-18T06:32:09.928Z,13.68
2022-10-18T06:34:39.342Z,12.75
2022-10-18T06:37:08.769Z,10.45
2022-10-18T06:39:38.158Z,11.80
2022-10-18T06:42:11.899Z,15.00
2022-10-18T06:44:41.621Z,10.93
2022-10-18T06:47:11.592Z,9.13
2022-10-18T06:49:41.020Z,10.13
2022-10-18T06:52:10.667Z,13.93
2022-10-18T06:54:40.000Z,12.38
2022-10-18T06:57:10.766Z,11.95
2022-10-18T06:59:40.010Z,15.45
2022-10-18T07:02:09.403Z,14.27
2022-10-18T07:04:38.704Z,14.35
2022-10-18T07:07:08.053Z,12.43
2022-10-18T07:09:37.479Z,11.95
2022-10-18T07:12:07.110Z,11.55
2022-10-18T07:14:37.869Z,10.70
2022-10-18T07:17:07.079Z,8.63
2022-10-18T07:19:36.336Z,11.38
2022-10-18T07:22:05.640Z,10.57
2022-10-18T07:24:34.983Z,9.30
2022-10-18T07:27:04.418Z,12.65
2022-10-18T07:29:33.835Z,10.32
2022-10-18T07:32:04.688Z,12.32
2022-10-18T07:34:33.912Z,10.85
2022-10-18T07:37:04.029Z,13.13
2022-10-18T07:39:33.147Z,9.98
2022-10-18T07:42:02.359Z,11.38
2022-10-18T07:44:31.641Z,10.40
2022-10-18T07:47:00.761Z,13.63
2022-10-18T07:49:31.479Z,10.23
2022-10-18T07:52:00.746Z,10.63
2022-10-18T07:54:30.580Z,15.82
2022-10-18T07:57:00.144Z,11.68
2022-10-18T07:59:29.360Z,13.00
2022-10-18T08:01:58.673Z,9.50
2022-10-18T08:04:27.920Z,13.35
2022-10-18T08:06:58.479Z,12.85
2022-10-18T08:09:28.080Z,12.50
2022-10-18T08:11:57.269Z,16.67
2022-10-18T08:14:26.412Z,15.93
2022-10-18T08:16:56.910Z,14.60
2022-10-18T08:19:26.209Z,17.23
2022-10-18T08:21:55.409Z,9.73
2022-10-18T08:24:26.172Z,10.45
2022-10-18T08:26:55.430Z,13.20
2022-10-18T08:29:27.940Z,11.10
2022-10-18T08:31:58.699Z,12.38
2022-10-18T08:34:28.079Z,11.88
2022-10-18T08:36:57.321Z,11.32
2022-10-18T08:39:28.299Z,12.48
2022-10-18T08:42:22.653Z,10.57
2022-10-18T08:44:53.988Z,17.95
2022-10-18T08:47:28.291Z,11.02
2022-10-18T08:50:00.795Z,13.07
2022-10-18T08:52:35.603Z,10.43
2022-10-18T08:55:13.111Z,14.68
2022-10-18T08:57:42.440Z,11.30
2022-10-18T09:00:17.935Z,12.32
2022-10-18T09:03:05.421Z,11.63
2022-10-18T09:05:42.379Z,12.93
2022-10-18T09:08:47.089Z,14.35
2022-10-18T09:11:28.433Z,13.77
2022-10-18T09:14:22.889Z,10.88
2022-10-18T09:17:00.093Z,12.82
2022-10-18T09:19:45.037Z,14.38
2022-10-18T09:22:15.851Z,12.35
2022-10-18T09:24:53.560Z,10.35
2022-10-18T09:27:35.129Z,11.50
2022-10-18T09:30:15.163Z,12.00
2022-10-18T09:32:50.507Z,13.25
2022-10-18T09:35:24.209Z,15.00
2022-10-18T09:37:57.498Z,16.48
2022-10-18T09:40:30.576Z,12.00
2022-10-18T09:43:04.547Z,11.45
2022-10-18T09:45:38.192Z,12.20
2022-10-18T09:48:12.231Z,13.55
2022-10-18T09:50:45.516Z,13.40
2022-10-18T09:53:21.775Z,13.65
2022-10-18T09:56:00.962Z,12.50
2022-10-18T09:58:42.952Z,13.98
2022-10-18T10:01:14.873Z,13.55
2022-10-18T10:03:44.514Z,17.00
2022-10-18T10:06:19.871Z,15.60
2022-10-18T10:08:51.651Z,18.00
2022-10-18T10:11:34.170Z,12.90
2022-10-18T10:16:52.203Z,13.23
2022-10-18T10:19:28.110Z,15.55
2022-10-18T10:22:07.951Z,13.23
2022-10-18T10:24:46.964Z,13.98
2022-10-18T10:27:22.641Z,14.02
2022-10-18T10:29:58.823Z,16.10
2022-10-18T10:32:33.481Z,16.35
2022-10-18T10:35:02.799Z,14.63
2022-10-18T10:37:35.610Z,13.57
2022-10-18T10:40:28.385Z,15.20
2022-10-18T10:43:19.611Z,22.85
2022-10-18T10:46:03.905Z,20.77
2022-10-18T10:48:35.772Z,17.35
2022-10-18T10:51:09.090Z,16.10
2022-10-18T10:53:45.640Z,13.38
2022-10-18T10:56:23.881Z,16.75
2022-10-18T10:58:54.877Z,16.52
2022-10-18T11:01:30.154Z,34.50
2022-10-18T11:04:03.684Z,17.73
2022-10-18T11:06:47.833Z,18.50
2022-10-18T11:09:44.161Z,16.30
2022-10-18T11:12:35.737Z,16.02
2022-10-18T11:15:17.520Z,14.57
2022-10-18T11:18:00.988Z,15.15
2022-10-18T11:20:35.022Z,17.40
2022-10-18T11:23:08.775Z,13.95
2022-10-18T11:26:08.660Z,14.88
2022-10-18T11:28:52.188Z,16.63
2022-10-18T11:31:29.080Z,14.05
2022-10-18T11:34:18.042Z,15.20
2022-10-18T11:37:09.684Z,24.75
2022-10-18T11:39:55.658Z,16.05
2022-10-18T11:42:37.820Z,15.18
2022-10-18T11:45:23.539Z,16.55
2022-10-18T11:48:01.546Z,22.83
2022-10-18T11:50:39.437Z,16.52
2022-10-18T11:53:20.412Z,23.60
2022-10-18T11:56:04.066Z,15.65
2022-10-18T11:58:47.820Z,16.42
2022-10-18T12:01:28.816Z,16.10
2022-10-18T12:04:06.412Z,30.33
2022-10-18T12:06:40.434Z,17.80
2022-10-18T12:09:18.894Z,15.40
2022-10-18T12:11:56.002Z,15.00
2022-10-18T12:14:31.252Z,19.15
2022-10-18T12:17:39.797Z,15.40
2022-10-18T12:19:59.622Z,15.50
2022-10-18T12:22:38.447Z,16.85
2022-10-18T12:25:14.855Z,17.95
2022-10-18T12:27:50.653Z,15.95
2022-10-18T12:30:26.532Z,15.27
2022-10-18T12:33:26.570Z,15.93
2022-10-18T12:36:05.951Z,17.45
2022-10-18T12:38:39.572Z,16.73
2022-10-18T12:41:18.451Z,19.02
2022-10-18T12:43:55.175Z,15.20
2022-10-18T12:46:26.063Z,16.75
2022-10-18T12:49:07.169Z,19.27
2022-10-18T12:51:37.182Z,18.77
2022-10-18T12:54:19.024Z,15.82
2022-10-18T12:56:48.763Z,18.08
2022-10-18T12:59:52.535Z,18.25
2022-10-18T13:02:34.299Z,17.10
2022-10-18T13:05:52.842Z,19.23
2022-10-18T13:08:42.382Z,16.15
2022-10-18T13:11:44.624Z,18.02
2022-10-18T13:14:59.314Z,16.83
2022-10-18T13:17:44.122Z,17.17
2022-10-18T13:20:27.297Z,19.27
2022-10-18T13:23:10.652Z,19.98
2022-10-18T13:25:54.090Z,17.50
2022-10-18T13:28:32.643Z,17.88
2022-10-18T13:31:10.556Z,17.58
2022-10-18T13:33:42.124Z,17.20
2022-10-18T13:36:23.938Z,22.52
2022-10-18T13:39:05.136Z,20.10
2022-10-18T13:41:57.678Z,17.80
2022-10-18T13:44:32.047Z,22.15
2022-10-18T13:47:35.555Z,20.23
2022-10-18T13:50:35.015Z,18.35
2022-10-18T13:53:31.964Z,17.13
2022-10-18T13:56:25.809Z,21.27
2022-10-18T13:59:21.346Z,18.77
2022-10-18T14:02:06.543Z,16.73
2022-10-18T14:05:24.621Z,16.92
2022-10-18T14:07:59.875Z,21.90
2022-10-18T14:10:50.095Z,17.63
2022-10-18T14:13:32.666Z,19.02
2022-10-18T14:16:08.183Z,20.92
2022-10-18T14:18:44.105Z,19.33
2022-10-18T14:21:22.082Z,17.67
2022-10-18T14:23:52.915Z,17.95
2022-10-18T14:26:23.904Z,18.48
2022-10-18T14:29:06.352Z,19.35
2022-10-18T14:31:37.737Z,17.65
2022-10-18T14:34:14.253Z,17.23
2022-10-18T14:36:47.902Z,17.55
2022-10-18T14:39:22.479Z,19.83
2022-10-18T14:41:53.888Z,19.60
2022-10-18T14:44:27.377Z,18.33
2022-10-18T14:47:02.977Z,20.70
2022-10-18T14:49:33.889Z,24.50
2022-10-18T14:52:03.290Z,18.20
2022-10-18T14:54:35.377Z,17.73
2022-10-18T14:57:06.259Z,17.92
2022-10-18T14:59:41.198Z,18.80
2022-10-18T15:02:16.327Z,19.15
2022-10-18T15:04:48.558Z,17.95
2022-10-18T15:07:19.691Z,18.90
2022-10-18T15:09:49.845Z,18.02
2022-10-18T15:12:20.131Z,18.92
2022-10-18T15:14:50.202Z,21.33
2022-10-18T15:17:27.269Z,22.95
2022-10-18T15:20:05.073Z,17.85
2022-10-18T15:22:36.211Z,18.48
2022-10-18T15:25:18.183Z,19.40
2022-10-18T15:27:49.971Z,15.57
2022-10-18T15:30:25.741Z,16.65
2022-10-18T15:32:57.043Z,12.48
2022-10-18T15:35:30.613Z,7.28
2022-10-18T15:38:03.754Z,6.97
2022-10-18T15:40:38.874Z,7.18
2022-10-18T15:43:35.286Z,4.73
2022-10-18T15:46:06.885Z,4.73
2022-10-18T15:48:39.517Z,6.30
2022-10-18T15:51:18.046Z,5.03
2022-10-18T15:53:53.767Z,4.17
2022-10-18T15:56:40.041Z,5.13
2022-10-18T15:59:26.809Z,5.07
2022-10-18T16:02:01.447Z,4.20
2022-10-18T16:04:32.343Z,6.40
2022-10-18T16:07:02.843Z,7.43
2022-10-18T16:09:31.982Z,9.53
2022-10-18T16:12:01.252Z,7.53
2022-10-18T16:14:30.700Z,9.37
2022-10-18T16:17:02.091Z,8.07
2022-10-18T16:19:32.343Z,7.17
2022-10-18T16:22:06.664Z,9.43
2022-10-18T16:24:36.254Z,8.43
2022-10-18T16:27:05.672Z,8.47
2022-10-18T16:29:34.913Z,10.53
2022-10-18T16:32:04.263Z,9.67
2022-10-18T16:34:33.792Z,7.80
2022-10-18T16:37:04.355Z,8.23
2022-10-18T16:39:35.584Z,8.13
2022-10-18T16:42:05.003Z,10.97
2022-10-18T16:44:34.193Z,7.80
2022-10-18T16:47:03.514Z,7.90
2022-10-18T16:49:32.843Z,10.20
2022-10-18T16:52:03.734Z,10.83
2022-10-18T16:54:32.902Z,10.07
2022-10-18T16:57:02.140Z,9.20
2022-10-18T16:59:33.390Z,14.00
2022-10-18T17:02:05.949Z,9.10
2022-10-18T17:04:35.267Z,14.00
2022-10-18T17:07:06.334Z,10.63
2022-10-18T17:09:37.800Z,10.10
2022-10-18T17:12:08.007Z,10.77
2022-10-18T17:14:37.192Z,11.33
2022-10-18T17:17:06.940Z,12.00
2022-10-18T17:19:36.202Z,11.77
2022-10-18T17:22:07.338Z,12.70
2022-10-18T17:24:37.472Z,11.80
2022-10-18T17:27:07.062Z,11.57
2022-10-18T17:29:36.473Z,12.80
2022-10-18T17:32:06.184Z,12.77
2022-10-18T17:34:36.250Z,11.63
2022-10-18T17:37:08.314Z,12.37
2022-10-18T17:39:38.221Z,7.53
2022-10-18T17:42:07.690Z,6.17
2022-10-18T17:44:38.685Z,4.80
2022-10-18T17:47:08.217Z,4.13
2022-10-18T17:49:37.929Z,4.13
2022-10-18T17:52:09.059Z,5.97
2022-10-18T17:54:42.240Z,4.80
2022-10-18T17:57:12.115Z,5.80
2022-10-18T17:59:42.327Z,5.73
2022-10-18T18:02:12.218Z,4.80
2022-10-18T18:04:42.197Z,5.10
2022-10-18T18:07:12.985Z,7.00
2022-10-18T18:09:42.401Z,5.80
2022-10-18T18:12:11.884Z,5.10
2022-10-18T18:14:41.521Z,5.57
2022-10-18T18:17:11.394Z,5.67
2022-10-18T18:19:41.165Z,5.17
2022-10-18T18:22:12.289Z,7.93
2022-10-18T18:24:42.044Z,7.13
2022-10-18T18:27:11.759Z,7.70
2022-10-18T18:29:41.776Z,6.77
2022-10-18T18:32:11.444Z,5.20
2022-10-18T18:34:41.013Z,5.73
2022-10-18T18:37:11.759Z,5.07
2022-10-18T18:39:41.160Z,5.20
2022-10-18T18:42:11.211Z,5.70
2022-10-18T18:44:40.838Z,5.40
2022-10-18T18:47:13.244Z,5.97
2022-10-18T18:49:43.296Z,5.10
2022-10-18T18:52:14.366Z,5.77
2022-10-18T18:54:43.922Z,5.70
2022-10-18T18:57:13.397Z,5.43
2022-10-18T18:59:43.054Z,7.70
2022-10-18T19:02:12.820Z,4.67
2022-10-18T19:04:43.105Z,5.30
2022-10-18T19:07:14.342Z,4.20
2022-10-18T19:09:45.485Z,5.33
2022-10-18T19:12:19.048Z,5.03
2022-10-18T19:14:50.628Z,5.23
2022-10-18T19:17:26.019Z,4.33
2022-10-18T19:19:56.256Z,3.77
2022-10-18T19:22:28.933Z,3.93
2022-10-18T19:24:59.249Z,4.47
2022-10-18T19:27:30.074Z,4.00
2022-10-18T19:30:00.473Z,4.20
2022-10-18T19:32:30.694Z,3.90
2022-10-18T19:35:00.149Z,4.60
2022-10-18T19:37:31.991Z,4.27
2022-10-18T19:40:04.965Z,4.93
2022-10-18T19:42:34.641Z,4.30
2022-10-18T19:45:04.805Z,4.83
2022-10-18T19:47:34.836Z,4.60
2022-10-18T19:50:05.101Z,5.03
2022-10-18T19:52:38.258Z,5.00
2022-10-18T19:55:09.129Z,6.23
2022-10-18T19:57:38.762Z,5.40
2022-10-18T20:00:10.975Z,4.73
2022-10-18T20:02:44.172Z,5.10
2022-10-18T20:05:13.526Z,5.00
2022-10-18T20:07:45.637Z,5.70
2022-10-18T20:10:15.117Z,7.90
2022-10-18T20:12:44.230Z,6.93
2022-10-18T20:15:14.099Z,6.63
2022-10-18T20:17:43.320Z,7.00
2022-10-18T20:20:13.718Z,6.40
2022-10-18T20:22:44.489Z,9.30
2022-10-18T20:25:14.416Z,7.23
2022-10-18T20:27:43.777Z,6.30
2022-10-18T20:30:13.360Z,6.33
2022-10-18T20:32:43.050Z,6.33
2022-10-18T20:35:12.358Z,6.67
2022-10-18T20:37:41.729Z,5.97
2022-10-18T20:40:14.031Z,6.20
2022-10-18T20:42:44.119Z,6.70
2022-10-18T20:45:13.515Z,6.27
2022-10-18T20:47:43.036Z,6.20
2022-10-18T20:50:12.379Z,6.30
2022-10-18T20:52:41.731Z,5.47
2022-10-18T20:55:13.351Z,5.97
2022-10-18T20:57:42.946Z,7.47
2022-10-18T21:00:14.212Z,6.60
2022-10-18T21:02:44.348Z,7.30
2022-10-18T21:05:13.741Z,7.67
2022-10-18T21:07:43.160Z,7.70
2022-10-18T21:10:13.799Z,8.00
2022-10-18T21:12:43.093Z,9.27
2022-10-18T21:15:13.040Z,8.80
2022-10-18T21:17:42.128Z,9.33
2022-10-18T21:20:12.554Z,10.47
2022-10-18T21:22:41.634Z,10.90
2022-10-18T21:25:12.844Z,10.30
2022-10-18T21:27:42.129Z,10.83
2022-10-18T21:32:46.476Z,10.03
2022-10-18T21:35:15.800Z,11.27
2022-10-18T21:37:45.091Z,11.50
2022-10-18T21:40:15.673Z,12.67
2022-10-18T21:42:44.914Z,12.20
2022-10-18T21:45:13.961Z,12.87
2022-10-18T21:47:43.086Z,14.10
2022-10-18T21:50:12.422Z,13.83
2022-10-18T21:52:41.601Z,13.33
2022-10-18T21:55:11.143Z,13.30
2022-10-18T21:57:41.854Z,14.27
2022-10-18T22:00:13.351Z,14.60
2022-10-18T22:02:43.118Z,15.13
2022-10-18T22:05:12.359Z,14.73
2022-10-18T22:07:41.491Z,14.90
2022-10-18T22:10:11.120Z,15.17
2022-10-18T22:12:41.525Z,16.10
2022-10-18T22:15:11.396Z,15.53
2022-10-18T22:17:40.406Z,16.93
2022-10-18T22:20:10.785Z,15.93
2022-10-18T22:22:39.870Z,15.00
2022-10-18T22:25:09.472Z,14.37
2022-10-18T22:27:38.839Z,15.37
2022-10-18T22:30:10.958Z,15.50
2022-10-18T22:32:41.320Z,13.97
2022-10-18T22:35:10.884Z,14.47
2022-10-18T22:37:40.117Z,14.33
2022-10-18T22:40:11.095Z,15.70
2022-10-18T22:42:40.355Z,14.27
2022-10-18T22:45:11.547Z,15.73
2022-10-18T22:47:41.346Z,16.93
2022-10-18T22:50:12.892Z,14.60
2022-10-18T22:52:43.148Z,15.50
2022-10-18T22:55:12.649Z,16.23
2022-10-18T22:57:41.921Z,14.50
2022-10-18T23:00:14.229Z,17.47
2022-10-18T23:02:43.481Z,15.63
2022-10-18T23:05:12.601Z,15.77
2022-10-18T23:07:41.769Z,16.10
2022-10-18T23:10:10.960Z,15.67
2022-10-18T23:12:39.957Z,15.57
2022-10-18T23:15:10.026Z,15.07
2022-10-18T23:17:40.697Z,16.30
2022-10-18T23:20:10.666Z,15.40
2022-10-18T23:22:39.749Z,15.00
2022-10-18T23:25:09.714Z,14.93
2022-10-18T23:27:38.889Z,14.57
2022-10-18T23:30:09.388Z,15.40
2022-10-18T23:32:41.184Z,13.90
2022-10-18T23:35:10.936Z,15.40
2022-10-18T23:37:40.144Z,14.43
2022-10-18T23:40:10.823Z,13.93
2022-10-18T23:42:40.033Z,14.47
2022-10-18T23:45:10.716Z,14.13
2022-10-18T23:47:41.468Z,13.47
2022-10-18T23:50:11.326Z,13.70
2022-10-18T23:52:40.478Z,13.90
2022-10-18T23:55:10.287Z,12.80
2022-10-18T23:57:39.463Z,12.40
